Turkey Creek, Arizona
Current Conditions -  °F | °C
As of 7:02 AM on Thursday 18 Dec 2014 (Local Time) from KSAD Reporting Station
Overcast Overcast  
Wind Chill: 38°   Ceiling: 2000
Heat Index: 42°   Visibility: 10mi
Dew Point: 41°   Wind: 7mph
Humidity: 96%   Direction: 140°SE
Pressure: 30.13"   Gusts: NA
Location:  32.5598°N, 110.08°W
Report Text: KSAD 181402Z AUTO 14006KT 10SM BKN020 OVC110 06/05 A3013 RMK AO2 T00560050
Loading
Personal Weather Stations






























Interactive Weather Map New forecast layout! Learn more

10-Day Weather Forecast

Advertisements
Track Severe Weather on mobile